Terminal Aerodrome Forecast
Issued by NWS

Home | Current Version | Previous Version | Text Only | Print | Product List | Glossary On
Versions: 1 2 3 4 5 6 7 8 9 10 11 12 13 14 15 16 17 18 19 20 21
000
FTUS43 KDLH 010900 AAA
TAFHYR
TAF AMD
KHYR 010935Z 0110/0206 05010KT P6SM SCT030 OVC150
      TEMPO 0112/0114 BKN030
     FM011400 04010KT P6SM BKN030 BKN150
     FM012000 03010KT P6SM SCT025 OVC110
     FM020100 03003KT P6SM SCT025 OVC110=

USA.gov is the U.S. government's official web portal to all federal, state and local government web resources and services.